F/V Men Gwen — FGPU — position and weather

sailwx.info

Track history (hours):
 
Tides and Currents Weather Stations Pressure Air Temp Water Temp Dewpoint Dewpoint Depression Visibility Wind Speed Wind Dir Waves Ship Positions

F/V Men Gwen

Last reported at 2017-Sep-22 02:00 UTC. Time now 2017-Sep-23 07:44 UTC.
Position N 47°28' W 003°25'.

Length 18 m.

Type: Fishing. MMSI: 227481000.

Date/timePositionNaut miles runAvg speedWind from/ knotsBaromVisibWave heightAir tempDewpointWater temp
2017-Sep-22 02:00N 47°28' W 003°25'2 3.8
2017-Sep-22 01:30N 47°28' W 003°27'2 3.7
2017-Sep-22 01:00N 47°30' W 003°27'2 3.8
2017-Sep-22 00:30N 47°32' W 003°27'4 7.6
2017-Sep-22 00:00N 47°35' W 003°23'4 8.5
2017-Sep-21 23:30N 47°39' W 003°23'4 8.8
2017-Sep-21 23:00N 47°43' W 003°22'0 0.5
2017-Sep-21 22:30N 47°44' W 003°22'0 0.2
2017-Sep-21 22:00N 47°44' W 003°22'0 1.0
2017-Sep-21 21:30N 47°43' W 003°22'4 8.7
2017-Sep-21 21:00N 47°39' W 003°22'4 8.5
2017-Sep-21 20:30N 47°35' W 003°24'4 8.6
2017-Sep-21 20:00N 47°32' W 003°29'4 8.2
2017-Sep-21 19:30N 47°29' W 003°33'0 0.6
2017-Sep-21 19:00N 47°29' W 003°33'2 3.9
2017-Sep-21 18:29N 47°31' W 003°35'2 3.9
2017-Sep-21 18:00N 47°32' W 003°37'2 3.9
2017-Sep-21 17:30N 47°32' W 003°40'2 3.8
2017-Sep-21 17:00N 47°31' W 003°42'2 3.2
2017-Sep-21 16:30N 47°29' W 003°42'2 4.1
2017-Sep-21 16:00N 47°27' W 003°42'2 3.6
2017-Sep-21 15:30N 47°26' W 003°44'2 4.1
2017-Sep-21 15:00N 47°25' W 003°47'5 1.5
2017-Sep-21 12:04N 47°27' W 003°53'1 3.6
2017-Sep-21 11:45N 47°27' W 003°51'1 3.9
2017-Sep-21 11:30N 47°27' W 003°50'2 3.8
2017-Sep-21 11:00N 47°26' W 003°47'2 3.9
2017-Sep-21 10:29N 47°26' W 003°44'2 3.9
2017-Sep-21 09:52N 47°27' W 003°41'2 3.7
2017-Sep-21 09:28N 47°28' W 003°39'2 3.5
2017-Sep-21 09:00N 47°28' W 003°42'2 3.7
2017-Sep-21 08:30N 47°26' W 003°41'2 3.3
2017-Sep-21 07:56N 47°28' W 003°39'2 3.8
2017-Sep-21 07:27N 47°29' W 003°40'2 3.6
2017-Sep-21 07:00N 47°30' W 003°43'2 3.6
2017-Sep-21 06:26N 47°31' W 003°41'2 3.8
2017-Sep-21 06:00N 47°32' W 003°39'2 3.9
2017-Sep-21 05:30N 47°32' W 003°36'2 4.4
2017-Sep-21 05:00N 47°30' W 003°34'1 1.4
2017-Sep-21 04:30N 47°30' W 003°33'1 1.6
2017-Sep-21 04:00N 47°29' W 003°32'1 2.9
2017-Sep-21 03:30N 47°28' W 003°30'2 3.3
2017-Sep-21 03:00N 47°28' W 003°28'2 4.0
2017-Sep-21 02:30N 47°28' W 003°25'1 2.5
2017-Sep-21 02:00N 47°30' W 003°25'2 3.1
2017-Sep-21 01:30N 47°31' W 003°27'2 3.2
2017-Sep-21 01:00N 47°32' W 003°27'1 2.8
2017-Sep-21 00:30N 47°32' W 003°25'2 3.6
2017-Sep-21 00:00N 47°30' W 003°24'2 4.2
2017-Sep-20 23:30N 47°28' W 003°25'5 9.0
2017-Sep-20 23:00N 47°26' W 003°19'1 2.9
2017-Sep-20 22:30N 47°24' W 003°18'2 3.4
2017-Sep-20 22:00N 47°25' W 003°16'1 2.7
2017-Sep-20 21:30N 47°26' W 003°15'2 3.4
2017-Sep-20 21:00N 47°26' W 003°18'2 3.4
2017-Sep-20 20:30N 47°25' W 003°20'2 3.6
2017-Sep-20 20:00N 47°25' W 003°23'4 8.5
2017-Sep-20 19:30N 47°27' W 003°29'3 5.1
2017-Sep-20 19:00N 47°28' W 003°32'2 3.9
2017-Sep-20 18:30N 47°28' W 003°35'2 3.9
2017-Sep-20 17:55N 47°30' W 003°38'2 3.9
2017-Sep-20 17:30N 47°30' W 003°40'1 2.9
2017-Sep-20 17:00N 47°29' W 003°42'2 4.0
2017-Sep-20 16:30N 47°27' W 003°42'2 3.6
2017-Sep-20 16:00N 47°26' W 003°43'2 3.6
2017-Sep-20 15:30N 47°24' W 003°42'2 3.8
2017-Sep-20 15:01N 47°24' W 003°39'3 2.7
2017-Sep-20 14:00N 47°27' W 003°40'2 3.8
2017-Sep-20 13:31N 47°28' W 003°38'2 3.8
2017-Sep-20 13:01N 47°30' W 003°37'11 2.4
2017-Sep-20 08:29N 47°35' W 003°23'4 8.6
2017-Sep-20 08:00N 47°39' W 003°23'4 8.4
2017-Sep-20 07:30N 47°44' W 003°22'0 0.3
2017-Sep-20 07:00N 47°44' W 003°22'0 0.0
2017-Sep-20 02:36N 47°44' W 003°22'0 0.1
2017-Sep-20 02:31N 47°44' W 003°22'0 0.0
2017-Sep-20 02:00N 47°44' W 003°22'3 6.7
2017-Sep-20 01:30N 47°40' W 003°22'5 9.8
2017-Sep-20 01:00N 47°35' W 003°23'5 9.9
2017-Sep-20 00:30N 47°31' W 003°24'510.0
2017-Sep-20 00:00N 47°26' W 003°26'5 9.9
2017-Sep-19 23:30N 47°21' W 003°27'6 9.7
2017-Sep-19 22:56N 47°15' W 003°28'1 2.9
2017-Sep-19 22:27N 47°15' W 003°30'1 2.3
2017-Sep-19 21:56N 47°14' W 003°31'2 3.9
2017-Sep-19 21:30N 47°14' W 003°29'2 3.8
2017-Sep-19 20:52N 47°13' W 003°25'1 3.9
2017-Sep-19 20:30N 47°12' W 003°24'2 4.0
2017-Sep-19 20:00N 47°11' W 003°21'3 5.4
2017-Sep-19 19:30N 47°14' W 003°19'10 2.3
2017-Sep-19 15:22N 47°23' W 003°23'2 5.8
2017-Sep-19 15:00N 47°25' W 003°23'1 2.7
2017-Sep-19 14:30N 47°25' W 003°21'2 3.6
2017-Sep-19 14:00N 47°25' W 003°18'2 3.4
2017-Sep-19 13:31N 47°25' W 003°16'1 2.6
2017-Sep-19 13:01N 47°26' W 003°15'2 4.3
2017-Sep-19 12:30N 47°26' W 003°18'2 3.9
2017-Sep-19 12:01N 47°25' W 003°21'1 2.5
2017-Sep-19 11:30N 47°25' W 003°22'2 3.1
2017-Sep-19 11:01N 47°25' W 003°20'2 3.5
2017-Sep-19 10:31N 47°24' W 003°18'1 2.6
2017-Sep-19 10:00N 47°25' W 003°16'2 3.5
2017-Sep-19 09:31N 47°26' W 003°19'2 3.9
2017-Sep-19 09:01N 47°25' W 003°21'1 2.6
2017-Sep-19 08:30N 47°25' W 003°19'2 4.0
2017-Sep-19 08:00N 47°25' W 003°16'2 3.1
2017-Sep-19 07:30N 47°26' W 003°15'2 3.5
2017-Sep-19 07:00N 47°26' W 003°18'2 3.4
2017-Sep-19 06:30N 47°25' W 003°20'1 1.7
2017-Sep-19 06:00N 47°25' W 003°21'2 4.1
2017-Sep-19 05:30N 47°24' W 003°18'2 4.1
2017-Sep-19 05:00N 47°25' W 003°15'1 2.5
2017-Sep-19 04:30N 47°26' W 003°16'2 3.8
2017-Sep-19 04:00N 47°26' W 003°19'2 3.8
2017-Sep-19 03:30N 47°25' W 003°22'3 6.9
2017-Sep-19 03:01N 47°29' W 003°23'4 8.8
2017-Sep-19 02:30N 47°33' W 003°23'4 9.0
2017-Sep-19 02:00N 47°38' W 003°23'4 8.9
2017-Sep-19 01:30N 47°42' W 003°22'2 3.5
2017-Sep-19 01:00N 47°44' W 003°22'3 5.8
2017-Sep-19 00:30N 47°41' W 003°22'5 9.5
2017-Sep-19 00:00N 47°36' W 003°23'5 9.1
2017-Sep-18 23:30N 47°33' W 003°27'2 3.1
2017-Sep-18 23:00N 47°32' W 003°25'2 3.8
2017-Sep-18 22:30N 47°30' W 003°24'2 4.0
2017-Sep-18 22:01N 47°28' W 003°25'2 3.4
2017-Sep-18 21:30N 47°28' W 003°27'2 4.0
2017-Sep-18 21:00N 47°30' W 003°27'2 4.1
2017-Sep-18 20:30N 47°32' W 003°27'4 7.6
2017-Sep-18 20:00N 47°34' W 003°32'5 9.2
2017-Sep-18 19:30N 47°36' W 003°38'4 7.2
2017-Sep-18 18:56N 47°37' W 003°44'2 3.9
2017-Sep-18 18:30N 47°36' W 003°45'2 3.9
2017-Sep-18 18:00N 47°35' W 003°47'2 4.0
2017-Sep-18 17:30N 47°33' W 003°48'2 3.8
2017-Sep-18 17:00N 47°31' W 003°50'2 3.8
2017-Sep-18 16:30N 47°31' W 003°53'2 4.1
2017-Sep-18 16:00N 47°31' W 003°56'1 2.7
2017-Sep-18 15:30N 47°31' W 003°58'2 3.5
2017-Sep-18 15:00N 47°30' W 003°55'2 3.4
2017-Sep-18 14:29N 47°32' W 003°56'6 3.4
2017-Sep-18 12:44N 47°32' W 004°05'1 3.9
2017-Sep-18 12:24N 47°32' W 004°03'2 3.4
2017-Sep-18 11:51N 47°32' W 003°60'1 4.1
2017-Sep-18 11:30N 47°31' W 003°58'2 4.1
2017-Sep-18 11:00N 47°29' W 003°56'2 2.9
2017-Sep-18 10:09N 47°30' W 003°52'1 4.1
2017-Sep-18 09:58N 47°31' W 003°53'2 4.2
2017-Sep-18 09:27N 47°31' W 003°56'1 2.5
2017-Sep-18 09:00N 47°30' W 003°56'2 4.3
2017-Sep-18 08:30N 47°29' W 003°53'4 3.5
2017-Sep-18 07:28N 47°31' W 003°58'2 3.5
2017-Sep-18 06:46N 47°32' W 004°00'1 4.0
2017-Sep-18 06:25N 47°32' W 003°58'2 4.1
2017-Sep-18 05:59N 47°31' W 003°56'2 4.0
2017-Sep-18 05:30N 47°30' W 003°54'2 4.2
2017-Sep-18 05:00N 47°31' W 003°51'2 3.3
2017-Sep-18 04:29N 47°32' W 003°48'3 6.5
2017-Sep-18 03:59N 47°34' W 003°45'3 6.8
2017-Sep-18 03:30N 47°36' W 003°41'4 7.3
2017-Sep-18 03:00N 47°38' W 003°36'4 8.1
2017-Sep-18 02:30N 47°40' W 003°31'4 8.6
2017-Sep-18 02:00N 47°41' W 003°25'3 7.0
2017-Sep-18 01:30N 47°44' W 003°22'0 0.1
2017-Sep-18 01:00N 47°44' W 003°22'3 6.2
2017-Sep-18 00:30N 47°41' W 003°22'5 9.2
2017-Sep-18 00:00N 47°36' W 003°23'4 8.9
2017-Sep-17 23:30N 47°33' W 003°27'1 2.7
2017-Sep-17 23:00N 47°32' W 003°25'2 3.7
2017-Sep-17 22:30N 47°30' W 003°24'2 4.0
2017-Sep-17 22:00N 47°28' W 003°25'2 3.7
2017-Sep-17 21:30N 47°28' W 003°27'2 3.9
2017-Sep-17 21:00N 47°30' W 003°27'2 4.0
2017-Sep-17 20:30N 47°32' W 003°27'3 6.7
2017-Sep-17 20:00N 47°34' W 003°31'5 9.3
2017-Sep-17 19:30N 47°36' W 003°37'4 7.9
2017-Sep-17 19:00N 47°37' W 003°43'2 3.3
2017-Sep-17 18:30N 47°37' W 003°45'2 3.8
2017-Sep-17 18:00N 47°35' W 003°47'2 3.9
2017-Sep-17 17:30N 47°33' W 003°48'2 3.7
2017-Sep-17 17:00N 47°32' W 003°49'2 3.7
2017-Sep-17 16:30N 47°31' W 003°51'2 3.7
2017-Sep-17 16:00N 47°29' W 003°52'2 3.6
2017-Sep-17 15:28N 47°29' W 003°54'2 0.8
2017-Sep-17 12:44N 47°31' W 003°52'1 3.9
2017-Sep-17 12:30N 47°30' W 003°51'3 1.1
2017-Sep-17 09:50N 47°31' W 003°56'2 3.8
2017-Sep-17 09:23N 47°30' W 003°53'2 3.2
2017-Sep-17 08:48N 47°29' W 003°51'3 0.2
2017-Sep-16 16:21N 47°31' W 003°54'1 4.3
2017-Sep-16 16:00N 47°31' W 003°52'2 3.2
2017-Sep-16 15:26N 47°29' W 003°53'1 1.4
2017-Sep-16 14:29N 47°30' W 003°54'2 3.2
2017-Sep-16 13:49N 47°29' W 003°51'3 2.5
2017-Sep-16 12:27N 47°31' W 003°56'2 3.0
2017-Sep-16 11:48N 47°31' W 003°53'1 3.5
2017-Sep-16 11:26N 47°31' W 003°52'1 3.2
2017-Sep-16 11:00N 47°32' W 003°54'2 3.4
2017-Sep-16 10:31N 47°30' W 003°52'2 1.7
2017-Sep-16 09:15N 47°30' W 003°55'2 1.9
2017-Sep-16 08:16N 47°31' W 003°54'1 3.6
2017-Sep-16 07:58N 47°31' W 003°53'2 3.4
2017-Sep-16 07:22N 47°29' W 003°51'3 1.8
2017-Sep-16 05:43N 47°31' W 003°54'1 3.8
2017-Sep-16 05:30N 47°31' W 003°53'3 3.8
2017-Sep-16 04:47N 47°31' W 003°49'2 4.9
2017-Sep-16 04:28N 47°32' W 003°47'4 8.3
2017-Sep-16 04:01N 47°35' W 003°43'4 8.7
2017-Sep-16 03:30N 47°37' W 003°38'4 8.8
2017-Sep-16 03:01N 47°39' W 003°32'4 8.7
2017-Sep-16 02:31N 47°41' W 003°26'4 8.0
2017-Sep-16 02:01N 47°44' W 003°22'0 0.2
2017-Sep-16 01:31N 47°44' W 003°22'0 0.2
2017-Sep-16 01:01N 47°44' W 003°22'0 0.0
2017-Sep-16 00:31N 47°44' W 003°22'0 0.0
2017-Sep-16 00:01N 47°44' W 003°22'0 0.8
2017-Sep-15 23:31N 47°43' W 003°22'4 8.8
2017-Sep-15 23:01N 47°39' W 003°22'4 8.3
2017-Sep-15 22:31N 47°35' W 003°24'4 8.7
2017-Sep-15 22:01N 47°32' W 003°29'4 8.5
2017-Sep-15 21:31N 47°30' W 003°34'3 5.5
2017-Sep-15 21:01N 47°28' W 003°37'5 4.0
2017-Sep-15 19:46N 47°26' W 003°44'4 4.0
2017-Sep-15 18:52N 47°27' W 003°49'8 2.3
2017-Sep-15 15:32N 47°31' W 003°59'0 3.7
2017-Sep-15 15:29N 47°31' W 003°58'1 0.5
2017-Sep-15 13:40N 47°32' W 003°59'3 0.2
2017-Sep-14 18:57N 47°30' W 003°55'2 3.6
2017-Sep-14 18:27N 47°32' W 003°57'3 4.0
2017-Sep-14 17:46N 47°34' W 003°59'5 1.2
2017-Sep-14 13:47N 47°30' W 004°03'1 3.7
2017-Sep-14 13:30N 47°29' W 004°02'2 3.7
2017-Sep-14 13:00N 47°28' W 004°01'4 3.7
2017-Sep-14 11:56N 47°24' W 003°57'2 3.7
2017-Sep-14 11:27N 47°24' W 003°54'16 2.2
2017-Sep-14 03:50N 47°18' W 003°32'3 7.4
2017-Sep-14 03:21N 47°21' W 003°30'3 7.4
2017-Sep-14 03:00N 47°24' W 003°29'4 7.5
2017-Sep-14 02:30N 47°27' W 003°27'4 7.6
2017-Sep-14 02:00N 47°31' W 003°25'4 7.8
2017-Sep-14 01:30N 47°35' W 003°23'4 8.1
2017-Sep-14 01:00N 47°39' W 003°22'4 8.6
2017-Sep-14 00:30N 47°43' W 003°22'1 1.4
2017-Sep-14 00:00N 47°44' W 003°22'1 1.5
2017-Sep-13 23:30N 47°43' W 003°22'4 8.8
2017-Sep-13 23:00N 47°39' W 003°23'4 8.8
2017-Sep-13 22:30N 47°34' W 003°23'4 8.8
2017-Sep-13 22:00N 47°30' W 003°26'4 8.5
2017-Sep-13 21:30N 47°26' W 003°27'4 8.4
2017-Sep-13 21:00N 47°22' W 003°29'14 3.3
2017-Sep-13 16:55N 47°09' W 003°27'1 0.1
2017-Sep-13 11:25N 47°09' W 003°26'7 0.6
2017-Sep-12 23:59N 47°16' W 003°25'2 3.0
2017-Sep-12 23:28N 47°17' W 003°25'2 2.8
2017-Sep-12 22:39N 47°17' W 003°28'1 3.5
2017-Sep-12 22:20N 47°16' W 003°30'1 3.3
2017-Sep-12 21:57N 47°17' W 003°31'1 3.3
2017-Sep-12 21:30N 47°18' W 003°29'2 2.9
2017-Sep-12 20:57N 47°17' W 003°27'3 0.2
2017-Sep-12 04:12N 47°17' W 003°31'2 8.7
2017-Sep-12 03:59N 47°19' W 003°30'4 8.8
2017-Sep-12 03:30N 47°23' W 003°28'4 8.8
2017-Sep-12 03:00N 47°27' W 003°27'5 8.9
2017-Sep-12 02:29N 47°31' W 003°25'  
Track history (hours):
 
Tides and Currents Weather Stations Pressure Air Temp Water Temp Dewpoint Dewpoint Depression Visibility Wind Speed Wind Dir Waves Ship Positions

F/V Men Gwen

Last reported at 2017-Sep-22 02:00 UTC. Time now 2017-Sep-23 07:44 UTC.
Position N 47°28' W 003°25'.

Length 18 m.

Type: Fishing. MMSI: 227481000.

Date/timePositionNaut miles runAvg speedWind from/ knotsBaromVisibWave heightAir tempDewpointWater temp
2017-Sep-22 02:00N 47°28' W 003°25'2 3.8
2017-Sep-22 01:30N 47°28' W 003°27'2 3.7
2017-Sep-22 01:00N 47°30' W 003°27'2 3.8
2017-Sep-22 00:30N 47°32' W 003°27'4 7.6
2017-Sep-22 00:00N 47°35' W 003°23'4 8.5
2017-Sep-21 23:30N 47°39' W 003°23'4 8.8
2017-Sep-21 23:00N 47°43' W 003°22'0 0.5
2017-Sep-21 22:30N 47°44' W 003°22'0 0.2
2017-Sep-21 22:00N 47°44' W 003°22'0 1.0
2017-Sep-21 21:30N 47°43' W 003°22'4 8.7
2017-Sep-21 21:00N 47°39' W 003°22'4 8.5
2017-Sep-21 20:30N 47°35' W 003°24'4 8.6
2017-Sep-21 20:00N 47°32' W 003°29'4 8.2
2017-Sep-21 19:30N 47°29' W 003°33'0 0.6
2017-Sep-21 19:00N 47°29' W 003°33'2 3.9
2017-Sep-21 18:29N 47°31' W 003°35'2 3.9
2017-Sep-21 18:00N 47°32' W 003°37'2 3.9
2017-Sep-21 17:30N 47°32' W 003°40'2 3.8
2017-Sep-21 17:00N 47°31' W 003°42'2 3.2
2017-Sep-21 16:30N 47°29' W 003°42'2 4.1
2017-Sep-21 16:00N 47°27' W 003°42'2 3.6
2017-Sep-21 15:30N 47°26' W 003°44'2 4.1
2017-Sep-21 15:00N 47°25' W 003°47'5 1.5
2017-Sep-21 12:04N 47°27' W 003°53'1 3.6
2017-Sep-21 11:45N 47°27' W 003°51'1 3.9
2017-Sep-21 11:30N 47°27' W 003°50'2 3.8
2017-Sep-21 11:00N 47°26' W 003°47'2 3.9
2017-Sep-21 10:29N 47°26' W 003°44'2 3.9
2017-Sep-21 09:52N 47°27' W 003°41'2 3.7
2017-Sep-21 09:28N 47°28' W 003°39'2 3.5
2017-Sep-21 09:00N 47°28' W 003°42'2 3.7
2017-Sep-21 08:30N 47°26' W 003°41'2 3.3
2017-Sep-21 07:56N 47°28' W 003°39'2 3.8
2017-Sep-21 07:27N 47°29' W 003°40'2 3.6
2017-Sep-21 07:00N 47°30' W 003°43'2 3.6
2017-Sep-21 06:26N 47°31' W 003°41'2 3.8
2017-Sep-21 06:00N 47°32' W 003°39'2 3.9
2017-Sep-21 05:30N 47°32' W 003°36'2 4.4
2017-Sep-21 05:00N 47°30' W 003°34'1 1.4
2017-Sep-21 04:30N 47°30' W 003°33'1 1.6
2017-Sep-21 04:00N 47°29' W 003°32'1 2.9
2017-Sep-21 03:30N 47°28' W 003°30'2 3.3
2017-Sep-21 03:00N 47°28' W 003°28'2 4.0
2017-Sep-21 02:30N 47°28' W 003°25'1 2.5
2017-Sep-21 02:00N 47°30' W 003°25'2 3.1
2017-Sep-21 01:30N 47°31' W 003°27'2 3.2
2017-Sep-21 01:00N 47°32' W 003°27'1 2.8
2017-Sep-21 00:30N 47°32' W 003°25'2 3.6
2017-Sep-21 00:00N 47°30' W 003°24'2 4.2
2017-Sep-20 23:30N 47°28' W 003°25'5 9.0
2017-Sep-20 23:00N 47°26' W 003°19'1 2.9
2017-Sep-20 22:30N 47°24' W 003°18'2 3.4
2017-Sep-20 22:00N 47°25' W 003°16'1 2.7
2017-Sep-20 21:30N 47°26' W 003°15'2 3.4
2017-Sep-20 21:00N 47°26' W 003°18'2 3.4
2017-Sep-20 20:30N 47°25' W 003°20'2 3.6
2017-Sep-20 20:00N 47°25' W 003°23'4 8.5
2017-Sep-20 19:30N 47°27' W 003°29'3 5.1
2017-Sep-20 19:00N 47°28' W 003°32'2 3.9
2017-Sep-20 18:30N 47°28' W 003°35'2 3.9
2017-Sep-20 17:55N 47°30' W 003°38'2 3.9
2017-Sep-20 17:30N 47°30' W 003°40'1 2.9
2017-Sep-20 17:00N 47°29' W 003°42'2 4.0
2017-Sep-20 16:30N 47°27' W 003°42'2 3.6
2017-Sep-20 16:00N 47°26' W 003°43'2 3.6
2017-Sep-20 15:30N 47°24' W 003°42'2 3.8
2017-Sep-20 15:01N 47°24' W 003°39'3 2.7
2017-Sep-20 14:00N 47°27' W 003°40'2 3.8
2017-Sep-20 13:31N 47°28' W 003°38'2 3.8
2017-Sep-20 13:01N 47°30' W 003°37'11 2.4
2017-Sep-20 08:29N 47°35' W 003°23'4 8.6
2017-Sep-20 08:00N 47°39' W 003°23'4 8.4
2017-Sep-20 07:30N 47°44' W 003°22'0 0.3
2017-Sep-20 07:00N 47°44' W 003°22'0 0.0
2017-Sep-20 02:36N 47°44' W 003°22'0 0.1
2017-Sep-20 02:31N 47°44' W 003°22'0 0.0
2017-Sep-20 02:00N 47°44' W 003°22'3 6.7
2017-Sep-20 01:30N 47°40' W 003°22'5 9.8
2017-Sep-20 01:00N 47°35' W 003°23'5 9.9
2017-Sep-20 00:30N 47°31' W 003°24'510.0
2017-Sep-20 00:00N 47°26' W 003°26'5 9.9
2017-Sep-19 23:30N 47°21' W 003°27'6 9.7
2017-Sep-19 22:56N 47°15' W 003°28'1 2.9
2017-Sep-19 22:27N 47°15' W 003°30'1 2.3
2017-Sep-19 21:56N 47°14' W 003°31'2 3.9
2017-Sep-19 21:30N 47°14' W 003°29'2 3.8
2017-Sep-19 20:52N 47°13' W 003°25'1 3.9
2017-Sep-19 20:30N 47°12' W 003°24'2 4.0
2017-Sep-19 20:00N 47°11' W 003°21'3 5.4
2017-Sep-19 19:30N 47°14' W 003°19'10 2.3
2017-Sep-19 15:22N 47°23' W 003°23'2 5.8
2017-Sep-19 15:00N 47°25' W 003°23'1 2.7
2017-Sep-19 14:30N 47°25' W 003°21'2 3.6
2017-Sep-19 14:00N 47°25' W 003°18'2 3.4
2017-Sep-19 13:31N 47°25' W 003°16'1 2.6
2017-Sep-19 13:01N 47°26' W 003°15'2 4.3
2017-Sep-19 12:30N 47°26' W 003°18'2 3.9
2017-Sep-19 12:01N 47°25' W 003°21'1 2.5
2017-Sep-19 11:30N 47°25' W 003°22'2 3.1
2017-Sep-19 11:01N 47°25' W 003°20'2 3.5
2017-Sep-19 10:31N 47°24' W 003°18'1 2.6
2017-Sep-19 10:00N 47°25' W 003°16'2 3.5
2017-Sep-19 09:31N 47°26' W 003°19'2 3.9
2017-Sep-19 09:01N 47°25' W 003°21'1 2.6
2017-Sep-19 08:30N 47°25' W 003°19'2 4.0
2017-Sep-19 08:00N 47°25' W 003°16'2 3.1
2017-Sep-19 07:30N 47°26' W 003°15'2 3.5
2017-Sep-19 07:00N 47°26' W 003°18'2 3.4
2017-Sep-19 06:30N 47°25' W 003°20'1 1.7
2017-Sep-19 06:00N 47°25' W 003°21'2 4.1
2017-Sep-19 05:30N 47°24' W 003°18'2 4.1
2017-Sep-19 05:00N 47°25' W 003°15'1 2.5
2017-Sep-19 04:30N 47°26' W 003°16'2 3.8
2017-Sep-19 04:00N 47°26' W 003°19'2 3.8
2017-Sep-19 03:30N 47°25' W 003°22'3 6.9
2017-Sep-19 03:01N 47°29' W 003°23'4 8.8
2017-Sep-19 02:30N 47°33' W 003°23'4 9.0
2017-Sep-19 02:00N 47°38' W 003°23'4 8.9
2017-Sep-19 01:30N 47°42' W 003°22'2 3.5
2017-Sep-19 01:00N 47°44' W 003°22'3 5.8
2017-Sep-19 00:30N 47°41' W 003°22'5 9.5
2017-Sep-19 00:00N 47°36' W 003°23'5 9.1
2017-Sep-18 23:30N 47°33' W 003°27'2 3.1
2017-Sep-18 23:00N 47°32' W 003°25'2 3.8
2017-Sep-18 22:30N 47°30' W 003°24'2 4.0
2017-Sep-18 22:01N 47°28' W 003°25'2 3.4
2017-Sep-18 21:30N 47°28' W 003°27'2 4.0
2017-Sep-18 21:00N 47°30' W 003°27'2 4.1
2017-Sep-18 20:30N 47°32' W 003°27'4 7.6
2017-Sep-18 20:00N 47°34' W 003°32'5 9.2
2017-Sep-18 19:30N 47°36' W 003°38'4 7.2
2017-Sep-18 18:56N 47°37' W 003°44'2 3.9
2017-Sep-18 18:30N 47°36' W 003°45'2 3.9
2017-Sep-18 18:00N 47°35' W 003°47'2 4.0
2017-Sep-18 17:30N 47°33' W 003°48'2 3.8
2017-Sep-18 17:00N 47°31' W 003°50'2 3.8
2017-Sep-18 16:30N 47°31' W 003°53'2 4.1
2017-Sep-18 16:00N 47°31' W 003°56'1 2.7
2017-Sep-18 15:30N 47°31' W 003°58'2 3.5
2017-Sep-18 15:00N 47°30' W 003°55'2 3.4
2017-Sep-18 14:29N 47°32' W 003°56'6 3.4
2017-Sep-18 12:44N 47°32' W 004°05'1 3.9
2017-Sep-18 12:24N 47°32' W 004°03'2 3.4
2017-Sep-18 11:51N 47°32' W 003°60'1 4.1
2017-Sep-18 11:30N 47°31' W 003°58'2 4.1
2017-Sep-18 11:00N 47°29' W 003°56'2 2.9
2017-Sep-18 10:09N 47°30' W 003°52'1 4.1
2017-Sep-18 09:58N 47°31' W 003°53'2 4.2
2017-Sep-18 09:27N 47°31' W 003°56'1 2.5
2017-Sep-18 09:00N 47°30' W 003°56'2 4.3
2017-Sep-18 08:30N 47°29' W 003°53'4 3.5
2017-Sep-18 07:28N 47°31' W 003°58'2 3.5
2017-Sep-18 06:46N 47°32' W 004°00'1 4.0
2017-Sep-18 06:25N 47°32' W 003°58'2 4.1
2017-Sep-18 05:59N 47°31' W 003°56'2 4.0
2017-Sep-18 05:30N 47°30' W 003°54'2 4.2
2017-Sep-18 05:00N 47°31' W 003°51'2 3.3
2017-Sep-18 04:29N 47°32' W 003°48'3 6.5
2017-Sep-18 03:59N 47°34' W 003°45'3 6.8
2017-Sep-18 03:30N 47°36' W 003°41'4 7.3
2017-Sep-18 03:00N 47°38' W 003°36'4 8.1
2017-Sep-18 02:30N 47°40' W 003°31'4 8.6
2017-Sep-18 02:00N 47°41' W 003°25'3 7.0
2017-Sep-18 01:30N 47°44' W 003°22'0 0.1
2017-Sep-18 01:00N 47°44' W 003°22'3 6.2
2017-Sep-18 00:30N 47°41' W 003°22'5 9.2
2017-Sep-18 00:00N 47°36' W 003°23'4 8.9
2017-Sep-17 23:30N 47°33' W 003°27'1 2.7
2017-Sep-17 23:00N 47°32' W 003°25'2 3.7
2017-Sep-17 22:30N 47°30' W 003°24'2 4.0
2017-Sep-17 22:00N 47°28' W 003°25'2 3.7
2017-Sep-17 21:30N 47°28' W 003°27'2 3.9
2017-Sep-17 21:00N 47°30' W 003°27'2 4.0
2017-Sep-17 20:30N 47°32' W 003°27'3 6.7
2017-Sep-17 20:00N 47°34' W 003°31'5 9.3
2017-Sep-17 19:30N 47°36' W 003°37'4 7.9
2017-Sep-17 19:00N 47°37' W 003°43'2 3.3
2017-Sep-17 18:30N 47°37' W 003°45'2 3.8
2017-Sep-17 18:00N 47°35' W 003°47'2 3.9
2017-Sep-17 17:30N 47°33' W 003°48'2 3.7
2017-Sep-17 17:00N 47°32' W 003°49'2 3.7
2017-Sep-17 16:30N 47°31' W 003°51'2 3.7
2017-Sep-17 16:00N 47°29' W 003°52'2 3.6
2017-Sep-17 15:28N 47°29' W 003°54'2 0.8
2017-Sep-17 12:44N 47°31' W 003°52'1 3.9
2017-Sep-17 12:30N 47°30' W 003°51'3 1.1
2017-Sep-17 09:50N 47°31' W 003°56'2 3.8
2017-Sep-17 09:23N 47°30' W 003°53'2 3.2
2017-Sep-17 08:48N 47°29' W 003°51'3 0.2
2017-Sep-16 16:21N 47°31' W 003°54'1 4.3
2017-Sep-16 16:00N 47°31' W 003°52'2 3.2
2017-Sep-16 15:26N 47°29' W 003°53'1 1.4
2017-Sep-16 14:29N 47°30' W 003°54'2 3.2
2017-Sep-16 13:49N 47°29' W 003°51'3 2.5
2017-Sep-16 12:27N 47°31' W 003°56'2 3.0
2017-Sep-16 11:48N 47°31' W 003°53'1 3.5
2017-Sep-16 11:26N 47°31' W 003°52'1 3.2
2017-Sep-16 11:00N 47°32' W 003°54'2 3.4
2017-Sep-16 10:31N 47°30' W 003°52'2 1.7
2017-Sep-16 09:15N 47°30' W 003°55'2 1.9
2017-Sep-16 08:16N 47°31' W 003°54'1 3.6
2017-Sep-16 07:58N 47°31' W 003°53'2 3.4
2017-Sep-16 07:22N 47°29' W 003°51'3 1.8
2017-Sep-16 05:43N 47°31' W 003°54'1 3.8
2017-Sep-16 05:30N 47°31' W 003°53'3 3.8
2017-Sep-16 04:47N 47°31' W 003°49'2 4.9
2017-Sep-16 04:28N 47°32' W 003°47'4 8.3
2017-Sep-16 04:01N 47°35' W 003°43'4 8.7
2017-Sep-16 03:30N 47°37' W 003°38'4 8.8
2017-Sep-16 03:01N 47°39' W 003°32'4 8.7
2017-Sep-16 02:31N 47°41' W 003°26'4 8.0
2017-Sep-16 02:01N 47°44' W 003°22'0 0.2
2017-Sep-16 01:31N 47°44' W 003°22'0 0.2
2017-Sep-16 01:01N 47°44' W 003°22'0 0.0
2017-Sep-16 00:31N 47°44' W 003°22'0 0.0
2017-Sep-16 00:01N 47°44' W 003°22'0 0.8
2017-Sep-15 23:31N 47°43' W 003°22'4 8.8
2017-Sep-15 23:01N 47°39' W 003°22'4 8.3
2017-Sep-15 22:31N 47°35' W 003°24'4 8.7
2017-Sep-15 22:01N 47°32' W 003°29'4 8.5
2017-Sep-15 21:31N 47°30' W 003°34'3 5.5
2017-Sep-15 21:01N 47°28' W 003°37'5 4.0
2017-Sep-15 19:46N 47°26' W 003°44'4 4.0
2017-Sep-15 18:52N 47°27' W 003°49'8 2.3
2017-Sep-15 15:32N 47°31' W 003°59'0 3.7
2017-Sep-15 15:29N 47°31' W 003°58'1 0.5
2017-Sep-15 13:40N 47°32' W 003°59'3 0.2
2017-Sep-14 18:57N 47°30' W 003°55'2 3.6
2017-Sep-14 18:27N 47°32' W 003°57'3 4.0
2017-Sep-14 17:46N 47°34' W 003°59'5 1.2
2017-Sep-14 13:47N 47°30' W 004°03'1 3.7
2017-Sep-14 13:30N 47°29' W 004°02'2 3.7
2017-Sep-14 13:00N 47°28' W 004°01'4 3.7
2017-Sep-14 11:56N 47°24' W 003°57'2 3.7
2017-Sep-14 11:27N 47°24' W 003°54'16 2.2
2017-Sep-14 03:50N 47°18' W 003°32'3 7.4
2017-Sep-14 03:21N 47°21' W 003°30'3 7.4
2017-Sep-14 03:00N 47°24' W 003°29'4 7.5
2017-Sep-14 02:30N 47°27' W 003°27'4 7.6
2017-Sep-14 02:00N 47°31' W 003°25'4 7.8
2017-Sep-14 01:30N 47°35' W 003°23'4 8.1
2017-Sep-14 01:00N 47°39' W 003°22'4 8.6
2017-Sep-14 00:30N 47°43' W 003°22'1 1.4
2017-Sep-14 00:00N 47°44' W 003°22'1 1.5
2017-Sep-13 23:30N 47°43' W 003°22'4 8.8
2017-Sep-13 23:00N 47°39' W 003°23'4 8.8
2017-Sep-13 22:30N 47°34' W 003°23'4 8.8
2017-Sep-13 22:00N 47°30' W 003°26'4 8.5
2017-Sep-13 21:30N 47°26' W 003°27'4 8.4
2017-Sep-13 21:00N 47°22' W 003°29'14 3.3
2017-Sep-13 16:55N 47°09' W 003°27'1 0.1
2017-Sep-13 11:25N 47°09' W 003°26'7 0.6
2017-Sep-12 23:59N 47°16' W 003°25'2 3.0
2017-Sep-12 23:28N 47°17' W 003°25'2 2.8
2017-Sep-12 22:39N 47°17' W 003°28'1 3.5
2017-Sep-12 22:20N 47°16' W 003°30'1 3.3
2017-Sep-12 21:57N 47°17' W 003°31'1 3.3
2017-Sep-12 21:30N 47°18' W 003°29'2 2.9
2017-Sep-12 20:57N 47°17' W 003°27'3 0.2
2017-Sep-12 04:12N 47°17' W 003°31'2 8.7
2017-Sep-12 03:59N 47°19' W 003°30'4 8.8
2017-Sep-12 03:30N 47°23' W 003°28'4 8.8
2017-Sep-12 03:00N 47°27' W 003°27'5 8.9
2017-Sep-12 02:29N 47°31' W 003°25'  

Dump ship's entire track history